CheckWX is a tool to help pilots better visualize weather data.  It is not intended as a substitute for an official pre-flight weather briefing.

00:53:21 UTC

KPEO METAR
Penn Yan Airport
Penn Yan, New York, USA
Current

60 mins ago

KPEO 122353Z AUTO 18008KT 10SM CLR M01/M11 A3044 RMK AO2 SLP324 T10111106 11011 21044 58027
Observed
Dec-12 @ 23:53 UTC
Wind
  • 180° at 8 KTS
Visibility
10 SM
Flight Rules
VFR
Cloud Levels
  • Clear skies
Temperature
-1°C / 30°F
Dewpoint
-11°C / 12°F
Humidity
47%
Altimeter
30.44" Hg
Pressure
1030.82 hPa
Previous

2 hours ago

KPEO 122253Z AUTO 16005KT 10SM CLR M02/M09 A3048 RMK AO2 SLP338 T10221089
Observed
Dec-12 @ 22:53 UTC
Wind
  • 160° at 5 KTS
Visibility
10 SM
Flight Rules
VFR
Cloud Levels
  • Clear skies
Temperature
-2°C / 28°F
Dewpoint
-9°C / 16°F
Humidity
59%
Altimeter
30.48" Hg
Pressure
1032.22 hPa
Previous

3 hours ago

KPEO 122153Z AUTO 13005KT 10SM CLR M04/M09 A3051 RMK AO2 SLP348 T10391094
Observed
Dec-12 @ 21:53 UTC
Wind
  • 130° at 5 KTS
Visibility
10 SM
Flight Rules
VFR
Cloud Levels
  • Clear skies
Temperature
-4°C / 25°F
Dewpoint
-9°C / 16°F
Humidity
69%
Altimeter
30.51" Hg
Pressure
1033.22 hPa